Archival Weather

Snohomish County (Paine Fld)

Everett, Washington (KPAE)

Report from: Thursday, November 16, 2023 4:53 PM PST
Current time: Monday, June 17, 2024 12:29 AM PDT

Current weather – Weather history – Daily summaries
Weather forecast

Temperature5.0°C (41.0°F)
Wind chill3.9°C (39.0°F)
Dew point0.0°C (32.0°F)
Winds 3 kts (1.5 m/s, 3.5 mph) North-Northwest (340°)
Visibility10 mi. (16.1 km)
Clouds Sky clear
Altimeter30.12 in.Hg (1020 mB)
Relative humidity70 %
Density altitude-1,365 ft. (-416 m)
Sea-level pressure102.1 kPa (1021 mB, 30.14 in.Hg)
Remarks Automated weather observing station with precipitation discriminator
Flight conditions Visual Meteorological Conditions
Raw dataKPAE 170053Z 34003KT 10SM CLR 05/00 A3012 RMK AO2 SLP206 T00500000
An error has occurred. This application may no longer respond until reloaded. Reload 🗙